Aérodrome :
LOGIN :

S'inscrire | Disclaimer

   EN    FR    IT 

 










Légende :    VFR   VFR Marginal   IFR   IFR Intensif   IFR Très Intensif
Visi : 
Plafond : 
>= 8 km
>= 3000ft
5 à 8 km
1000 à 3000 ft
1500m à 5 km
500 à 1000 ft
800 à 1500m
200 à 500 ft
< 800m
< 200 ft
Symboles :   Orages  Brouillard  Fortes neiges  Fortes précipitations  Vent > 20 kt
SIGMETs :   Divers  Orages  Givrage  Turbulence  Onde Orograph.  Cendres Volcan.







- Altitude de l'aérodrome : 202 ft
- Code IATA : LGW
- Voir les cartes d'approche


EGKK - London Gatwick

DERNIER METAR :
  • 230750Z 25011KT 9999 SCT022 17/11 Q1017

METARs EXPIRÉS :
  • 230720Z 26011KT 230V300 9999 FEW021 16/11 Q1017
  • 230650Z 26010KT 9999 FEW018 16/11 Q1016
  • 230620Z 26011KT 9999 FEW018 15/11 Q1016
  • 230550Z 25007KT 9999 FEW020 14/11 Q1016

TAF TAF EGKK
Valide du 23 à 06h jusqu'au 24 à 12h UTC


230449Z 2306/2412 24012KT 9999 SCT020
BECMG 2401/2404 BKN012
PROB40
TEMPO 2404/2412 7000 -RA BKN008
Pas de NOTAMs connus pour ce terrain.



MET'MAP, la Météo Aéronautique d'un coup d'oeil ! - Copyright ORBIFLY Décembre 2007 - Disclaimer

ORBIFLY MET'MAP TEAM :

Programmation & Développement : Alexandra Zaïnal
Conception & Développement : Baudouin d'Aumeries
Co-Programmation & Développement : Marc-Olivier Méhu
Soutien technique & logistique : Manuel Goepfert

Contact : metmap@orbifly.com




SOURCES & CREDITS :

   NOAA